Home > Products > Valid Products > TAF

000
FTUS43 KFSD 161215 AAA
TAFSUX
TAF AMD
KSUX 161215Z 1612/1712 VRB03KT 3SM MIFG SKC
      TEMPO 1612/1613 3/4SM BR BKN004
     FM161400 15003KT P6SM SKC
     FM161800 18011KT P6SM SCT030
     FM170000 14005KT P6SM BKN040=



000
FTUS43 KFSD 161126
TAFSUX
TAF
KSUX 161126Z 1612/1712 VRB03KT P6SM MIFG SKC
     FM161400 15003KT P6SM SKC
     FM161800 18011KT P6SM SCT030
     FM170000 14005KT P6SM BKN040=



000
FTUS43 KFSD 161126
TAFSUX
TAF
KSUX 161126Z 1612/1712 VRB03KT P6SM MIFG SKC
     FM161400 15003KT P6SM SKC
     FM161800 18011KT P6SM SCT030
     FM170000 14005KT P6SM BKN040=



000
FTUS43 KFSD 161126
TAFHON
TAF
KHON 161126Z 1612/1712 17006KT P6SM SKC
     FM161500 17010KT P6SM SCT040
     FM170000 14005KT P6SM SCT040=



000
FTUS43 KFSD 161126
TAFFSD
TAF
KFSD 161126Z 1612/1712 VRB03KT P6SM MIFG SKC
     FM161300 18005KT P6SM SKC
     FM161600 18011KT P6SM SCT030
     FM170000 17005KT P6SM BKN040=



000
FTUS43 KFSD 160520
TAFSUX
TAF
KSUX 160520Z 1606/1706 VRB03KT P6SM SKC
     FM161000 VRB03KT P6SM MIFG SKC
     FM161300 15003KT P6SM SKC
     FM161800 18009KT P6SM SCT030
     FM170000 14005KT P6SM BKN040=



000
FTUS43 KFSD 160520
TAFHON
TAF
KHON 160520Z 1606/1706 17006KT P6SM SKC
     FM161500 17010KT P6SM SCT040
     FM170000 14005KT P6SM SCT040=



000
FTUS43 KFSD 160520
TAFFSD
TAF
KFSD 160520Z 1606/1706 VRB03KT P6SM SKC
     FM161000 VRB03KT P6SM MIFG SKC
     FM161300 18005KT P6SM SKC
     FM161600 18009KT P6SM SCT030
     FM170000 17005KT P6SM BKN040=



000
FTUS43 KFSD 160520
TAFSUX
TAF
KSUX 160520Z 1606/1706 VRB03KT P6SM SKC
     FM161000 VRB03KT P6SM MIFG SKC
     FM161300 15003KT P6SM SKC
     FM161800 18009KT P6SM SCT030
     FM170000 14005KT P6SM BKN040=



000
FTUS43 KFSD 152331
TAFSUX
TAF
KSUX 152331Z 1600/1624 VRB03KT P6SM SKC
     FM161000 VRB03KT P6SM MIFG SKC
     FM161400 18008KT P6SM SCT030=



000
FTUS43 KFSD 152331
TAFFSD
TAF
KFSD 152331Z 1600/1624 VRB03KT P6SM SKC
     FM161000 VRB03KT P6SM MIFG SKC
     FM161430 18009KT P6SM SCT030=



000
FTUS43 KFSD 152331
TAFHON
TAF
KHON 152331Z 1600/1624 VRB03KT P6SM SKC
     FM160600 16006KT P6SM SKC
     FM161500 17009KT P6SM SCT040=



000
FTUS43 KFSD 152331
TAFSUX
TAF
KSUX 152331Z 1600/1624 VRB03KT P6SM SKC
     FM161000 VRB03KT P6SM MIFG SKC
     FM161400 18008KT P6SM SCT030=



000
FTUS43 KFSD 151838 CCA
TAFHON
TAF COR
KHON 151838Z 1518/1618 35008KT P6SM FEW060
     FM160000 VRB03KT P6SM SKC
     FM160600 15006KT P6SM SKC
     FM161500 16009KT P6SM SCT040=



000
FTUS43 KFSD 151742
TAFHON
TAF
KHON 151742Z 1518/1618 35008KT P6SM FEW060
     FM160000 VRB03KT P6SM SKC
     FM160600 15006KT P6SM SKC
     FM161500 16009KT P6SM BKN040=



000
FTUS43 KFSD 151742
TAFFSD
TAF
KFSD 151742Z 1518/1618 01009KT P6SM BKN050
     FM152100 36008KT P6SM SCT060
     FM160000 VRB03KT P6SM SKC
     FM161100 16004KT P6SM MIFG SKC
     FM161430 17008KT P6SM SCT045=



000
FTUS43 KFSD 151742
TAFSUX
TAF
KSUX 151742Z 1518/1618 01012G20KT P6SM BKN040
     FM152000 01013G18KT P6SM BKN050
     FM152200 36007KT P6SM SCT050
     FM160100 VRB03KT P6SM SKC
     FM161000 11003KT P6SM MIFG SKC
     FM161400 16007KT P6SM SCT035=



000
FTUS43 KFSD 151742
TAFSUX
TAF
KSUX 151742Z 1518/1618 01012G20KT P6SM BKN040
     FM152000 01013G18KT P6SM BKN050
     FM152200 36007KT P6SM SCT050
     FM160100 VRB03KT P6SM SKC
     FM161000 11003KT P6SM MIFG SKC
     FM161400 16007KT P6SM SCT035=



000
FTUS43 KFSD 151557 AAB
TAFSUX
TAF AMD
KSUX 151557Z 1516/1612 01012G20KT P6SM BKN025
     FM151800 01013G18KT P6SM SCT035
     FM152200 36007KT P6SM SCT050
     FM160000 VRB03KT P6SM SKC=



000
FTUS43 KFSD 151557 AAB
TAFSUX
TAF AMD
KSUX 151557Z 1516/1612 01012G20KT P6SM BKN025
     FM151800 01013G18KT P6SM SCT035
     FM152200 36007KT P6SM SCT050
     FM160000 VRB03KT P6SM SKC=



000
FTUS43 KFSD 151415 AAA
TAFSUX
TAF AMD
KSUX 151415Z 1514/1612 02012KT P6SM SCT015 BKN040
     FM152200 36007KT P6SM BKN050
     FM160000 VRB03KT P6SM SCT050=



000
FTUS43 KFSD 151415 AAA
TAFSUX
TAF AMD
KSUX 151415Z 1514/1612 02012KT P6SM SCT015 BKN040
     FM152200 36007KT P6SM BKN050
     FM160000 VRB03KT P6SM SCT050=



000
FTUS43 KFSD 151126
TAFSUX
TAF
KSUX 151126Z 1512/1612 36006KT P6SM SCT015 OVC040
     FM151300 01012KT P6SM SCT025 BKN030
     FM152200 36007KT P6SM BKN050
     FM160000 VRB03KT P6SM SCT050=



000
FTUS43 KFSD 151126
TAFHON
TAF
KHON 151126Z 1512/1612 33006KT P6SM SKC
     FM160000 VRB03KT P6SM SKC=



000
FTUS43 KFSD 151126
TAFFSD
TAF
KFSD 151126Z 1512/1612 35008KT P6SM BKN080
     FM151300 35009KT P6SM SCT070
     FM160000 VRB03KT P6SM SKC=



000
FTUS43 KFSD 151126
TAFSUX
TAF
KSUX 151126Z 1512/1612 36006KT P6SM SCT015 OVC040
     FM151300 01012KT P6SM SCT025 BKN030
     FM152200 36007KT P6SM BKN050
     FM160000 VRB03KT P6SM SCT050=



000
FTUS43 KFSD 150907 AAA
TAFSUX
TAF AMD
KSUX 150907Z 1509/1606 36006KT P6SM OVC040
      TEMPO 1511/1513 6SM -SHRA BR BKN030
     FM151300 01012KT P6SM SCT015 BKN030
     FM152200 36007KT P6SM BKN050
     FM160000 VRB03KT P6SM SCT050=



000
FTUS43 KFSD 150907 AAA
TAFSUX
TAF AMD
KSUX 150907Z 1509/1606 36006KT P6SM OVC040
      TEMPO 1511/1513 6SM -SHRA BR BKN030
     FM151300 01012KT P6SM SCT015 BKN030
     FM152200 36007KT P6SM BKN050
     FM160000 VRB03KT P6SM SCT050=



000
FTUS43 KFSD 150520
TAFHON
TAF
KHON 150520Z 1506/1606 35004KT P6SM OVC080
     FM151100 33006KT P6SM SKC
     FM160000 VRB03KT P6SM SKC=



000
FTUS43 KFSD 150520
TAFSUX
TAF
KSUX 150520Z 1506/1606 VRB04KT P6SM OVC050
     FM150900 36006KT P6SM -SHRA OVC030
      TEMPO 1509/1513 36015KT 4SM -SHRA BR BKN015
     FM151300 01012KT P6SM SCT015 BKN030
     FM152200 36007KT P6SM BKN050
     FM160000 VRB03KT P6SM SCT050=



000
FTUS43 KFSD 150520
TAFFSD
TAF
KFSD 150520Z 1506/1606 03005KT P6SM -SHRA OVC040
      TEMPO 1506/1510 4SM -SHRA BR OVC035
     FM151100 35008KT P6SM SCT040
     FM160000 VRB03KT P6SM FEW040=



000
FTUS43 KFSD 150220 AAB
TAFHON
TAF AMD
KHON 150220Z 1502/1524 VRB04KT P6SM OVC080
     FM151000 33005KT P6SM SKC=



000
FTUS43 KFSD 150016 AAA
TAFHON
TAF AMD
KHON 150016Z 1500/1524 03005KT P6SM OVC060
      TEMPO 1500/1504 4SM -RA BR OVC050
     FM151000 33005KT P6SM SKC=



000
FTUS43 KFSD 142342
TAFSUX
TAF
KSUX 142342Z 1500/1524 VRB04KT P6SM SCT050
     FM150300 VRB04KT P6SM OVC040
     FM150900 36006KT P6SM -SHRA OVC030
      TEMPO 1509/1513 36015KT 5SM -RA BR BKN015
     FM151300 36008KT P6SM SCT015 BKN030=



000
FTUS43 KFSD 142342
TAFHON
TAF
KHON 142342Z 1500/1524 03005KT P6SM OVC060
      TEMPO 1500/1504 P6SM -RA OVC050
     FM151000 33005KT P6SM SKC=



000
FTUS43 KFSD 142342
TAFFSD
TAF
KFSD 142342Z 1500/1524 05005KT P6SM BKN100
     FM150300 02004KT P6SM -SHRA OVC040
     FM151000 35005KT P6SM SKC
     FM151500 35008KT P6SM SCT040=



000
FTUS43 KFSD 142342
TAFSUX
TAF
KSUX 142342Z 1500/1524 VRB04KT P6SM SCT050
     FM150300 VRB04KT P6SM OVC040
     FM150900 36006KT P6SM -SHRA OVC030
      TEMPO 1509/1513 36015KT 5SM -RA BR BKN015
     FM151300 36008KT P6SM SCT015 BKN030=



000
FTUS43 KFSD 141720
TAFHON
TAF
KHON 141720Z 1418/1518 34005KT P6SM SCT100
     FM142100 35005KT P6SM BKN060
      TEMPO 1506/1508 6SM -RA OVC030
     FM150900 33005KT P6SM SCT040=



000
FTUS43 KFSD 141720
TAFSUX
TAF
KSUX 141720Z 1418/1518 VRB04KT P6SM SCT100
     FM150300 VRB04KT P6SM BKN030
      TEMPO 1504/1508 6SM -RA BKN030
     FM150800 02005KT P6SM OVC030
      TEMPO 1508/1512 5SM -RA BR BKN015
     FM151200 01008KT P6SM BKN030=



000
FTUS43 KFSD 141720
TAFSUX
TAF
KSUX 141720Z 1418/1518 VRB04KT P6SM SCT100
     FM150300 VRB04KT P6SM BKN030
      TEMPO 1504/1508 6SM -RA BKN030
     FM150800 02005KT P6SM OVC030
      TEMPO 1508/1512 5SM -RA BR BKN015
     FM151200 01008KT P6SM BKN030=



000
FTUS43 KFSD 141720
TAFFSD
TAF
KFSD 141720Z 1418/1518 VRB04KT P6SM SCT070
      TEMPO 1507/1511 6SM -RA BKN040
     FM151200 36005KT P6SM SCT040=



000
FTUS43 KFSD 141125
TAFHON
TAF
KHON 141125Z 1412/1512 31005KT P6SM FEW250
     FM141700 34005KT P6SM BKN100
     FM150000 01005KT P6SM BKN080
     FM150900 31006KT P6SM SCT080=



000
FTUS43 KFSD 141125
TAFSUX
TAF
KSUX 141125Z 1412/1512 15005KT P6SM SKC
     FM141900 19005KT P6SM SCT100 BKN250
     FM150300 09004KT P6SM BKN050
      TEMPO 1503/1507 6SM -RA BKN030
     FM150700 02005KT 5SM -RA BR OVC030
     FM151100 36008KT P6SM BKN030=



000
FTUS43 KFSD 141125
TAFFSD
TAF
KFSD 141125Z 1412/1512 VRB03KT P6SM SKC
     FM141600 01004KT P6SM SCT100 BKN250
     FM150100 03006KT P6SM SCT040 BKN080
      TEMPO 1503/1507 6SM -RA BKN040
     FM151000 36007KT P6SM BKN040=



000
FTUS43 KFSD 141125
TAFSUX
TAF
KSUX 141125Z 1412/1512 15005KT P6SM SKC
     FM141900 19005KT P6SM SCT100 BKN250
     FM150300 09004KT P6SM BKN050
      TEMPO 1503/1507 6SM -RA BKN030
     FM150700 02005KT 5SM -RA BR OVC030
     FM151100 36008KT P6SM BKN030=



000
FTUS43 KFSD 140520
TAFSUX
TAF
KSUX 140520Z 1406/1506 17005KT P6SM SKC
     FM140800 VRB03KT P6SM SKC
     FM141800 19005KT P6SM SCT100
     FM150300 VRB04KT P6SM BKN050=



000
FTUS43 KFSD 140520
TAFSUX
TAF
KSUX 140520Z 1406/1506 17005KT P6SM SKC
     FM140800 VRB03KT P6SM SKC
     FM141800 19005KT P6SM SCT100
     FM150300 VRB04KT P6SM BKN050=



000
FTUS43 KFSD 140520
TAFHON
TAF
KHON 140520Z 1406/1506 32006KT P6SM FEW250
     FM141700 34005KT P6SM BKN100
     FM142100 36004KT P6SM BKN080=



000
FTUS43 KFSD 140520
TAFFSD
TAF
KFSD 140520Z 1406/1506 20008KT P6SM SKC
     FM140900 VRB03KT P6SM SCT200
     FM141900 34005KT P6SM SCT100 BKN200
     FM150300 VRB03KT P6SM BKN050=



000
FTUS43 KFSD 132331
TAFHON
TAF
KHON 132331Z 1400/1424 21012G18KT P6SM SKC
     FM140100 21007KT P6SM SCT200
     FM140800 30005KT P6SM SCT200
     FM141700 34005KT P6SM BKN120=



000
FTUS43 KFSD 132331
TAFFSD
TAF
KFSD 132331Z 1400/1424 20012G18KT P6SM SCT050
     FM140100 20008KT P6SM FEW050
     FM140800 VRB04KT P6SM SCT200
     FM142100 34005KT P6SM BKN100=



000
FTUS43 KFSD 132331
TAFSUX
TAF
KSUX 132331Z 1400/1424 19012G18KT P6SM FEW060
     FM140100 17006KT P6SM FEW060
     FM140800 VRB04KT P6SM SKC
     FM141500 20004KT P6SM BKN120=



000
FTUS43 KFSD 132331
TAFSUX
TAF
KSUX 132331Z 1400/1424 19012G18KT P6SM FEW060
     FM140100 17006KT P6SM FEW060
     FM140800 VRB04KT P6SM SKC
     FM141500 20004KT P6SM BKN120=



    US Dept of Commerce
    National Oceanic and Atmospheric Administration
    National Weather Service
    1325 East West Highway
    Silver Spring, MD 20910
    Page Author: NWS Internet Services Team
Disclaimer
Information Quality
Credits
Glossary
Privacy Policy
Freedom of Information Act (FOIA)
About Us
Career Opportunities